sensor_id;sensor_type;location;lat;lon;timestamp;temperature;humidity
67603;DHT22;54417;47.454;18.918;2023-04-23T00:00:58;6.11;85.07
67603;DHT22;54417;47.454;18.918;2023-04-23T00:06:24;5.98;85.00
67603;DHT22;54417;47.454;18.918;2023-04-23T00:11:49;6.01;85.42
67603;DHT22;54417;47.454;18.918;2023-04-23T00:17:14;5.93;85.22
67603;DHT22;54417;47.454;18.918;2023-04-23T00:22:38;5.87;85.32
67603;DHT22;54417;47.454;18.918;2023-04-23T00:28:03;5.76;85.11
67603;DHT22;54417;47.454;18.918;2023-04-23T00:33:28;5.74;84.85
67603;DHT22;54417;47.454;18.918;2023-04-23T00:38:52;5.63;85.43
67603;DHT22;54417;47.454;18.918;2023-04-23T00:44:16;5.56;85.71
67603;DHT22;54417;47.454;18.918;2023-04-23T00:49:41;5.48;86.12
67603;DHT22;54417;47.454;18.918;2023-04-23T00:55:06;5.42;85.99
67603;DHT22;54417;47.454;18.918;2023-04-23T01:00:30;5.48;85.73
67603;DHT22;54417;47.454;18.918;2023-04-23T01:05:56;5.38;86.56
67603;DHT22;54417;47.454;18.918;2023-04-23T01:11:20;5.36;86.46
67603;DHT22;54417;47.454;18.918;2023-04-23T01:16:44;5.28;86.78
67603;DHT22;54417;47.454;18.918;2023-04-23T01:22:10;5.17;86.90
67603;DHT22;54417;47.454;18.918;2023-04-23T01:27:34;5.14;86.76
67603;DHT22;54417;47.454;18.918;2023-04-23T01:32:58;5.04;87.04
67603;DHT22;54417;47.454;18.918;2023-04-23T01:38:27;5.00;87.12
67603;DHT22;54417;47.454;18.918;2023-04-23T01:43:53;4.94;87.13
67603;DHT22;54417;47.454;18.918;2023-04-23T01:49:18;4.87;87.14
67603;DHT22;54417;47.454;18.918;2023-04-23T01:54:43;4.87;87.16
67603;DHT22;54417;47.454;18.918;2023-04-23T02:00:09;4.71;87.67
67603;DHT22;54417;47.454;18.918;2023-04-23T02:05:37;4.66;87.82
67603;DHT22;54417;47.454;18.918;2023-04-23T02:11:04;4.61;87.78
67603;DHT22;54417;47.454;18.918;2023-04-23T02:16:29;4.57;87.76
67603;DHT22;54417;47.454;18.918;2023-04-23T02:21:54;4.54;87.84
67603;DHT22;54417;47.454;18.918;2023-04-23T02:27:20;4.49;88.00
67603;DHT22;54417;47.454;18.918;2023-04-23T02:32:44;4.43;88.43
67603;DHT22;54417;47.454;18.918;2023-04-23T02:38:08;4.38;88.50
67603;DHT22;54417;47.454;18.918;2023-04-23T02:43:33;4.29;88.76
67603;DHT22;54417;47.454;18.918;2023-04-23T02:48:57;4.25;89.04
67603;DHT22;54417;47.454;18.918;2023-04-23T02:54:21;4.29;88.84
67603;DHT22;54417;47.454;18.918;2023-04-23T02:59:46;4.22;88.68
67603;DHT22;54417;47.454;18.918;2023-04-23T03:05:15;4.15;89.26
67603;DHT22;54417;47.454;18.918;2023-04-23T03:10:39;4.13;89.35
67603;DHT22;54417;47.454;18.918;2023-04-23T03:16:05;4.09;89.41
67603;DHT22;54417;47.454;18.918;2023-04-23T03:21:29;4.03;89.34
67603;DHT22;54417;47.454;18.918;2023-04-23T03:26:53;3.98;89.31
67603;DHT22;54417;47.454;18.918;2023-04-23T03:32:18;3.95;89.57
67603;DHT22;54417;47.454;18.918;2023-04-23T03:37:42;3.94;89.76
67603;DHT22;54417;47.454;18.918;2023-04-23T03:43:07;3.92;89.98
67603;DHT22;54417;47.454;18.918;2023-04-23T03:48:51;4.03;89.59
67603;DHT22;54417;47.454;18.918;2023-04-23T03:54:20;4.09;89.57
67603;DHT22;54417;47.454;18.918;2023-04-23T04:00:12;4.05;89.43
67603;DHT22;54417;47.454;18.918;2023-04-23T04:05:40;4.15;89.41
67603;DHT22;54417;47.454;18.918;2023-04-23T04:11:04;4.19;89.40
67603;DHT22;54417;47.454;18.918;2023-04-23T04:16:28;4.32;88.89
67603;DHT22;54417;47.454;18.918;2023-04-23T04:21:53;4.54;88.48
67603;DHT22;54417;47.454;18.918;2023-04-23T04:27:17;4.71;88.55
67603;DHT22;54417;47.454;18.918;2023-04-23T04:32:41;4.98;88.09
67603;DHT22;54417;47.454;18.918;2023-04-23T04:38:08;5.32;87.19
67603;DHT22;54417;47.454;18.918;2023-04-23T04:43:33;5.58;86.57
67603;DHT22;54417;47.454;18.918;2023-04-23T04:48:56;5.86;85.96
67603;DHT22;54417;47.454;18.918;2023-04-23T04:54:22;6.24;85.40
67603;DHT22;54417;47.454;18.918;2023-04-23T04:59:46;6.65;84.14
67603;DHT22;54417;47.454;18.918;2023-04-23T05:05:09;6.96;82.98
67603;DHT22;54417;47.454;18.918;2023-04-23T05:10:34;7.34;82.27
67603;DHT22;54417;47.454;18.918;2023-04-23T05:15:58;7.79;81.28
67603;DHT22;54417;47.454;18.918;2023-04-23T05:21:22;8.24;79.90
67603;DHT22;54417;47.454;18.918;2023-04-23T05:26:49;8.78;79.18
67603;DHT22;54417;47.454;18.918;2023-04-23T05:32:13;9.27;77.48
67603;DHT22;54417;47.454;18.918;2023-04-23T05:37:37;9.75;76.63
67603;DHT22;54417;47.454;18.918;2023-04-23T05:43:02;10.20;75.25
67603;DHT22;54417;47.454;18.918;2023-04-23T05:48:26;10.67;74.04
67603;DHT22;54417;47.454;18.918;2023-04-23T05:53:50;11.12;72.38
67603;DHT22;54417;47.454;18.918;2023-04-23T05:59:15;11.69;68.61
67603;DHT22;54417;47.454;18.918;2023-04-23T06:04:39;12.25;66.31
67603;DHT22;54417;47.454;18.918;2023-04-23T06:10:04;12.66;63.71
67603;DHT22;54417;47.454;18.918;2023-04-23T06:15:30;13.08;60.80
67603;DHT22;54417;47.454;18.918;2023-04-23T06:20:53;13.55;61.65
67603;DHT22;54417;47.454;18.918;2023-04-23T06:26:18;13.92;60.18
67603;DHT22;54417;47.454;18.918;2023-04-23T06:31:45;14.19;60.45
67603;DHT22;54417;47.454;18.918;2023-04-23T06:37:09;14.57;57.98
67603;DHT22;54417;47.454;18.918;2023-04-23T06:42:33;14.88;56.80
67603;DHT22;54417;47.454;18.918;2023-04-23T06:48:14;15.30;53.74
67603;DHT22;54417;47.454;18.918;2023-04-23T06:53:38;15.73;55.11
67603;DHT22;54417;47.454;18.918;2023-04-23T06:59:02;16.17;51.28
67603;DHT22;54417;47.454;18.918;2023-04-23T07:04:29;16.49;51.50
67603;DHT22;54417;47.454;18.918;2023-04-23T07:09:53;16.65;51.04
67603;DHT22;54417;47.454;18.918;2023-04-23T07:15:17;16.99;50.91
67603;DHT22;54417;47.454;18.918;2023-04-23T07:20:42;17.32;48.85
67603;DHT22;54417;47.454;18.918;2023-04-23T07:26:06;17.53;49.22
67603;DHT22;54417;47.454;18.918;2023-04-23T07:31:30;17.93;47.78
67603;DHT22;54417;47.454;18.918;2023-04-23T07:36:55;18.17;45.54
67603;DHT22;54417;47.454;18.918;2023-04-23T07:42:19;18.52;45.37
67603;DHT22;54417;47.454;18.918;2023-04-23T07:47:43;18.75;45.21
67603;DHT22;54417;47.454;18.918;2023-04-23T07:53:09;18.95;43.99
67603;DHT22;54417;47.454;18.918;2023-04-23T07:58:33;19.15;42.43
67603;DHT22;54417;47.454;18.918;2023-04-23T08:03:57;19.33;41.13
67603;DHT22;54417;47.454;18.918;2023-04-23T08:09:23;19.33;40.92
67603;DHT22;54417;47.454;18.918;2023-04-23T08:14:48;19.47;41.52
67603;DHT22;54417;47.454;18.918;2023-04-23T08:20:16;19.75;42.89
67603;DHT22;54417;47.454;18.918;2023-04-23T08:25:42;19.78;41.31
67603;DHT22;54417;47.454;18.918;2023-04-23T08:31:05;19.95;41.38
67603;DHT22;54417;47.454;18.918;2023-04-23T08:36:46;20.28;41.32
67603;DHT22;54417;47.454;18.918;2023-04-23T08:42:19;20.43;40.69
67603;DHT22;54417;47.454;18.918;2023-04-23T08:47:46;20.62;43.31
67603;DHT22;54417;47.454;18.918;2023-04-23T08:53:16;20.80;41.57
67603;DHT22;54417;47.454;18.918;2023-04-23T08:58:41;20.97;40.04
67603;DHT22;54417;47.454;18.918;2023-04-23T09:04:05;21.02;40.86
67603;DHT22;54417;47.454;18.918;2023-04-23T09:09:30;21.12;42.03
67603;DHT22;54417;47.454;18.918;2023-04-23T09:14:57;21.25;40.46
67603;DHT22;54417;47.454;18.918;2023-04-23T09:20:21;21.45;40.26
67603;DHT22;54417;47.454;18.918;2023-04-23T09:25:45;21.59;40.99
67603;DHT22;54417;47.454;18.918;2023-04-23T09:31:10;21.53;37.30
67603;DHT22;54417;47.454;18.918;2023-04-23T09:36:34;21.58;38.10
67603;DHT22;54417;47.454;18.918;2023-04-23T09:42:02;21.70;37.15
67603;DHT22;54417;47.454;18.918;2023-04-23T09:47:31;21.69;35.80
67603;DHT22;54417;47.454;18.918;2023-04-23T09:52:55;21.80;37.30
67603;DHT22;54417;47.454;18.918;2023-04-23T09:58:19;21.93;34.73
67603;DHT22;54417;47.454;18.918;2023-04-23T10:03:44;21.86;35.47
67603;DHT22;54417;47.454;18.918;2023-04-23T10:09:08;22.00;35.94
67603;DHT22;54417;47.454;18.918;2023-04-23T10:14:32;22.06;36.94
67603;DHT22;54417;47.454;18.918;2023-04-23T10:19:58;22.06;36.04
67603;DHT22;54417;47.454;18.918;2023-04-23T10:25:23;22.18;34.87
67603;DHT22;54417;47.454;18.918;2023-04-23T10:30:51;22.16;34.00
67603;DHT22;54417;47.454;18.918;2023-04-23T10:36:18;22.04;33.90
67603;DHT22;54417;47.454;18.918;2023-04-23T10:41:43;22.03;33.40
67603;DHT22;54417;47.454;18.918;2023-04-23T10:47:12;22.25;32.13
67603;DHT22;54417;47.454;18.918;2023-04-23T10:52:37;22.24;33.21
67603;DHT22;54417;47.454;18.918;2023-04-23T10:58:03;21.76;30.86
67603;DHT22;54417;47.454;18.918;2023-04-23T11:03:31;21.86;32.33
67603;DHT22;54417;47.454;18.918;2023-04-23T11:09:32;22.01;32.23
67603;DHT22;54417;47.454;18.918;2023-04-23T11:14:59;22.22;28.62
67603;DHT22;54417;47.454;18.918;2023-04-23T11:20:32;22.44;31.81
67603;DHT22;54417;47.454;18.918;2023-04-23T11:26:00;22.43;28.11
67603;DHT22;54417;47.454;18.918;2023-04-23T11:31:25;22.25;30.49
67603;DHT22;54417;47.454;18.918;2023-04-23T11:36:51;22.24;30.67
67603;DHT22;54417;47.454;18.918;2023-04-23T11:42:17;22.43;32.52
67603;DHT22;54417;47.454;18.918;2023-04-23T11:47:42;22.44;30.12
67603;DHT22;54417;47.454;18.918;2023-04-23T11:53:09;22.51;29.72
67603;DHT22;54417;47.454;18.918;2023-04-23T11:58:34;22.73;29.77
67603;DHT22;54417;47.454;18.918;2023-04-23T12:04:08;22.52;29.58
67603;DHT22;54417;47.454;18.918;2023-04-23T12:09:32;22.68;30.39
67603;DHT22;54417;47.454;18.918;2023-04-23T12:15:04;22.86;30.73
67603;DHT22;54417;47.454;18.918;2023-04-23T12:20:29;22.75;31.86
67603;DHT22;54417;47.454;18.918;2023-04-23T12:25:53;22.85;31.91
67603;DHT22;54417;47.454;18.918;2023-04-23T12:31:19;22.52;31.28
67603;DHT22;54417;47.454;18.918;2023-04-23T12:36:45;22.62;30.71
67603;DHT22;54417;47.454;18.918;2023-04-23T12:42:09;22.73;31.58
67603;DHT22;54417;47.454;18.918;2023-04-23T12:47:20;23.03;32.62
67603;DHT22;54417;47.454;18.918;2023-04-23T12:52:24;23.02;29.26
67603;DHT22;54417;47.454;18.918;2023-04-23T12:57:33;23.22;28.59
67603;DHT22;54417;47.454;18.918;2023-04-23T13:02:43;22.95;31.49
67603;DHT22;54417;47.454;18.918;2023-04-23T13:07:52;23.03;31.02
67603;DHT22;54417;47.454;18.918;2023-04-23T13:13:01;23.09;28.33
67603;DHT22;54417;47.454;18.918;2023-04-23T13:18:11;23.16;30.77
67603;DHT22;54417;47.454;18.918;2023-04-23T13:23:20;23.20;30.20
67603;DHT22;54417;47.454;18.918;2023-04-23T13:28:29;23.34;30.52
67603;DHT22;54417;47.454;18.918;2023-04-23T13:33:39;23.33;30.27
67603;DHT22;54417;47.454;18.918;2023-04-23T13:38:48;23.43;29.53
67603;DHT22;54417;47.454;18.918;2023-04-23T13:43:58;23.34;29.72
67603;DHT22;54417;47.454;18.918;2023-04-23T13:49:08;23.30;28.84
67603;DHT22;54417;47.454;18.918;2023-04-23T13:54:17;23.39;30.58
67603;DHT22;54417;47.454;18.918;2023-04-23T13:59:22;23.46;28.60
67603;DHT22;54417;47.454;18.918;2023-04-23T14:04:28;23.47;30.32
67603;DHT22;54417;47.454;18.918;2023-04-23T14:09:37;23.82;31.34
67603;DHT22;54417;47.454;18.918;2023-04-23T14:15:01;23.91;29.72
67603;DHT22;54417;47.454;18.918;2023-04-23T14:20:27;23.99;30.40
67603;DHT22;54417;47.454;18.918;2023-04-23T14:25:34;24.13;30.54
67603;DHT22;54417;47.454;18.918;2023-04-23T14:30:39;23.91;28.77
67603;DHT22;54417;47.454;18.918;2023-04-23T14:35:44;23.70;30.13
67603;DHT22;54417;47.454;18.918;2023-04-23T14:40:48;23.50;28.96
67603;DHT22;54417;47.454;18.918;2023-04-23T14:45:51;23.39;30.67
67603;DHT22;54417;47.454;18.918;2023-04-23T14:50:56;23.13;31.14
67603;DHT22;54417;47.454;18.918;2023-04-23T14:55:59;23.02;31.20
67603;DHT22;54417;47.454;18.918;2023-04-23T15:01:03;23.00;32.04
67603;DHT22;54417;47.454;18.918;2023-04-23T15:06:09;22.79;31.30
67603;DHT22;54417;47.454;18.918;2023-04-23T15:11:12;22.68;31.81
67603;DHT22;54417;47.454;18.918;2023-04-23T15:16:24;24.41;27.75
67603;DHT22;54417;47.454;18.918;2023-04-23T15:21:50;27.20;25.84
67603;DHT22;54417;47.454;18.918;2023-04-23T15:26:54;29.18;24.88
67603;DHT22;54417;47.454;18.918;2023-04-23T15:31:58;30.62;21.95
67603;DHT22;54417;47.454;18.918;2023-04-23T15:37:03;31.54;21.14
67603;DHT22;54417;47.454;18.918;2023-04-23T15:42:06;29.74;22.90
67603;DHT22;54417;47.454;18.918;2023-04-23T15:47:11;27.04;25.64
67603;DHT22;54417;47.454;18.918;2023-04-23T15:52:16;25.11;27.40
67603;DHT22;54417;47.454;18.918;2023-04-23T15:57:19;24.49;29.44
67603;DHT22;54417;47.454;18.918;2023-04-23T16:02:22;23.49;30.13
67603;DHT22;54417;47.454;18.918;2023-04-23T16:07:27;22.91;31.46
67603;DHT22;54417;47.454;18.918;2023-04-23T16:12:30;23.23;30.49
67603;DHT22;54417;47.454;18.918;2023-04-23T16:17:34;22.52;30.82
67603;DHT22;54417;47.454;18.918;2023-04-23T16:22:39;21.76;33.63
67603;DHT22;54417;47.454;18.918;2023-04-23T16:27:42;21.45;33.63
67603;DHT22;54417;47.454;18.918;2023-04-23T16:32:46;21.20;33.99
67603;DHT22;54417;47.454;18.918;2023-04-23T16:37:51;20.70;36.56
67603;DHT22;54417;47.454;18.918;2023-04-23T16:42:54;20.22;36.86
67603;DHT22;54417;47.454;18.918;2023-04-23T16:47:58;19.86;36.92
67603;DHT22;54417;47.454;18.918;2023-04-23T16:53:03;19.47;36.91
67603;DHT22;54417;47.454;18.918;2023-04-23T16:58:06;19.16;38.64
67603;DHT22;54417;47.454;18.918;2023-04-23T17:03:10;18.72;39.26
67603;DHT22;54417;47.454;18.918;2023-04-23T17:08:15;18.57;41.67
67603;DHT22;54417;47.454;18.918;2023-04-23T17:13:19;18.14;44.55
67603;DHT22;54417;47.454;18.918;2023-04-23T17:18:23;17.46;48.19
67603;DHT22;54417;47.454;18.918;2023-04-23T17:23:27;16.94;49.44
67603;DHT22;54417;47.454;18.918;2023-04-23T17:28:31;16.46;52.09
67603;DHT22;54417;47.454;18.918;2023-04-23T17:33:34;15.96;53.22
67603;DHT22;54417;47.454;18.918;2023-04-23T17:38:38;15.54;53.55
67603;DHT22;54417;47.454;18.918;2023-04-23T17:43:42;15.13;55.29
67603;DHT22;54417;47.454;18.918;2023-04-23T17:48:45;14.80;55.44
67603;DHT22;54417;47.454;18.918;2023-04-23T17:53:50;14.48;56.53
67603;DHT22;54417;47.454;18.918;2023-04-23T17:58:53;14.16;59.36
67603;DHT22;54417;47.454;18.918;2023-04-23T18:03:57;14.02;56.21
67603;DHT22;54417;47.454;18.918;2023-04-23T18:09:03;13.96;54.92
67603;DHT22;54417;47.454;18.918;2023-04-23T18:14:06;13.78;58.98
67603;DHT22;54417;47.454;18.918;2023-04-23T18:19:09;13.61;58.85
67603;DHT22;54417;47.454;18.918;2023-04-23T18:24:13;13.37;60.10
67603;DHT22;54417;47.454;18.918;2023-04-23T18:29:19;13.24;60.26
67603;DHT22;54417;47.454;18.918;2023-04-23T18:34:22;13.00;61.19
67603;DHT22;54417;47.454;18.918;2023-04-23T18:39:27;12.89;62.18
67603;DHT22;54417;47.454;18.918;2023-04-23T18:44:33;12.73;62.41
67603;DHT22;54417;47.454;18.918;2023-04-23T18:49:37;12.56;63.24
67603;DHT22;54417;47.454;18.918;2023-04-23T18:54:43;12.45;63.64
67603;DHT22;54417;47.454;18.918;2023-04-23T18:59:46;12.35;64.05
67603;DHT22;54417;47.454;18.918;2023-04-23T19:04:49;12.21;64.45
67603;DHT22;54417;47.454;18.918;2023-04-23T19:09:54;12.07;63.02
67603;DHT22;54417;47.454;18.918;2023-04-23T19:14:57;12.01;64.99
67603;DHT22;54417;47.454;18.918;2023-04-23T19:20:00;11.87;66.89
67603;DHT22;54417;47.454;18.918;2023-04-23T19:25:06;11.77;66.91
67603;DHT22;54417;47.454;18.918;2023-04-23T19:30:10;11.63;67.17
67603;DHT22;54417;47.454;18.918;2023-04-23T19:35:13;11.55;67.75
67603;DHT22;54417;47.454;18.918;2023-04-23T19:40:18;11.65;64.25
67603;DHT22;54417;47.454;18.918;2023-04-23T19:45:21;11.76;67.07
67603;DHT22;54417;47.454;18.918;2023-04-23T19:50:25;11.65;66.73
67603;DHT22;54417;47.454;18.918;2023-04-23T19:55:48;11.58;65.84
67603;DHT22;54417;47.454;18.918;2023-04-23T20:00:51;11.51;67.31
67603;DHT22;54417;47.454;18.918;2023-04-23T20:05:54;11.42;67.43
67603;DHT22;54417;47.454;18.918;2023-04-23T20:11:00;11.36;67.75
67603;DHT22;54417;47.454;18.918;2023-04-23T20:16:03;11.28;68.11
67603;DHT22;54417;47.454;18.918;2023-04-23T20:21:27;11.32;68.92
67603;DHT22;54417;47.454;18.918;2023-04-23T20:26:51;11.31;68.24
67603;DHT22;54417;47.454;18.918;2023-04-23T20:32:12;11.28;69.51
67603;DHT22;54417;47.454;18.918;2023-04-23T20:37:35;11.26;69.91
67603;DHT22;54417;47.454;18.918;2023-04-23T20:42:58;11.24;70.13
67603;DHT22;54417;47.454;18.918;2023-04-23T20:48:20;11.25;70.41
67603;DHT22;54417;47.454;18.918;2023-04-23T20:53:45;11.24;70.41
67603;DHT22;54417;47.454;18.918;2023-04-23T20:58:50;11.22;71.09
67603;DHT22;54417;47.454;18.918;2023-04-23T21:03:58;11.26;69.97
67603;DHT22;54417;47.454;18.918;2023-04-23T21:09:02;11.33;69.50
67603;DHT22;54417;47.454;18.918;2023-04-23T21:14:08;11.38;69.38
67603;DHT22;54417;47.454;18.918;2023-04-23T21:19:11;11.40;70.12
67603;DHT22;54417;47.454;18.918;2023-04-23T21:24:16;11.56;67.66
67603;DHT22;54417;47.454;18.918;2023-04-23T21:29:21;11.69;66.02
67603;DHT22;54417;47.454;18.918;2023-04-23T21:34:28;11.94;65.29
67603;DHT22;54417;47.454;18.918;2023-04-23T21:39:32;12.44;62.24
67603;DHT22;54417;47.454;18.918;2023-04-23T21:44:38;12.73;60.60
67603;DHT22;54417;47.454;18.918;2023-04-23T21:49:42;12.97;59.48
67603;DHT22;54417;47.454;18.918;2023-04-23T21:54:46;13.38;57.67
67603;DHT22;54417;47.454;18.918;2023-04-23T21:59:51;13.45;57.37
67603;DHT22;54417;47.454;18.918;2023-04-23T22:04:55;13.53;57.37
67603;DHT22;54417;47.454;18.918;2023-04-23T22:09:59;13.54;57.21
67603;DHT22;54417;47.454;18.918;2023-04-23T22:15:07;13.35;58.48
67603;DHT22;54417;47.454;18.918;2023-04-23T22:20:12;13.04;60.19
67603;DHT22;54417;47.454;18.918;2023-04-23T22:25:17;12.76;61.28
67603;DHT22;54417;47.454;18.918;2023-04-23T22:30:22;12.60;61.78
67603;DHT22;54417;47.454;18.918;2023-04-23T22:35:26;12.48;63.13
67603;DHT22;54417;47.454;18.918;2023-04-23T22:40:30;12.29;64.34
67603;DHT22;54417;47.454;18.918;2023-04-23T22:45:40;12.18;65.03
67603;DHT22;54417;47.454;18.918;2023-04-23T22:50:44;12.17;65.75
67603;DHT22;54417;47.454;18.918;2023-04-23T22:55:53;12.25;64.34
67603;DHT22;54417;47.454;18.918;2023-04-23T23:00:59;12.38;63.84
67603;DHT22;54417;47.454;18.918;2023-04-23T23:06:03;12.44;65.06
67603;DHT22;54417;47.454;18.918;2023-04-23T23:11:07;12.51;65.23
67603;DHT22;54417;47.454;18.918;2023-04-23T23:16:13;12.49;65.45
67603;DHT22;54417;47.454;18.918;2023-04-23T23:21:17;12.42;65.74
67603;DHT22;54417;47.454;18.918;2023-04-23T23:26:20;12.41;66.02
67603;DHT22;54417;47.454;18.918;2023-04-23T23:31:26;12.27;67.05
67603;DHT22;54417;47.454;18.918;2023-04-23T23:36:30;12.02;67.48
67603;DHT22;54417;47.454;18.918;2023-04-23T23:41:39;11.69;68.50
67603;DHT22;54417;47.454;18.918;2023-04-23T23:46:49;11.42;69.59
67603;DHT22;54417;47.454;18.918;2023-04-23T23:51:58;11.32;70.02
67603;DHT22;54417;47.454;18.918;2023-04-23T23:57:07;11.32;70.23
